Time;durP1;ratioP1;P1;durP2;ratioP2;P2;SDS_P1;SDS_P2;PMS_P1;PMS_P2;Temp;Humidity;BMP_temperature;BMP_pressure;BME280_temperature;BME280_humidity;BME280_pressure;Samples;Min_cycle;Max_cycle;Signal;HPM_P1;HPM_P2
2022/08/08 00:00:45;;;;;;;9.30;8.40;;;;;;;18.94;100.00;100153.95;1751938;81;21538;-81
2022/08/08 00:03:44;;;;;;;7.95;7.17;;;;;;;18.81;100.00;100153.84;1717589;81;21023;-81
2022/08/08 00:06:26;;;;;;;9.70;7.70;;;;;;;18.81;100.00;100149.20;1698573;81;21111;-80
2022/08/08 00:09:22;;;;;;;9.15;8.28;;;;;;;19.04;100.00;100157.88;1700480;82;21268;-80
2022/08/08 00:12:00;;;;;;;7.97;7.12;;;;;;;19.04;100.00;100157.88;1671738;84;21039;-80
2022/08/08 00:14:58;;;;;;;9.38;7.60;;;;;;;19.08;100.00;100157.57;1713421;82;21087;-80
2022/08/08 00:17:57;;;;;;;13.75;7.62;;;;;;;19.13;100.00;100161.59;1711103;83;21068;-80
2022/08/08 00:20:49;;;;;;;7.95;7.15;;;;;;;19.21;100.00;100163.38;1707283;82;21087;-81
2022/08/08 00:23:24;;;;;;;9.63;8.25;;;;;;;19.15;100.00;100157.19;1729812;82;21228;-80
2022/08/08 00:25:54;;;;;;;8.70;6.97;;;;;;;19.13;100.00;100158.05;1710167;82;21502;-78
2022/08/08 00:28:32;;;;;;;7.78;7.08;;;;;;;19.12;100.00;100150.42;1709799;84;21620;-79
2022/08/08 00:30:59;;;;;;;8.45;7.58;;;;;;;19.18;100.00;100158.53;1726820;82;21088;-81
2022/08/08 00:33:29;;;;;;;11.63;7.45;;;;;;;19.14;100.00;100161.01;1715378;82;21054;-82
2022/08/08 00:36:26;;;;;;;10.72;7.35;;;;;;;19.14;100.00;100161.01;1700690;82;21108;-80
2022/08/08 00:39:04;;;;;;;6.80;6.20;;;;;;;19.21;100.00;100152.47;1660951;82;21019;-79
2022/08/08 00:41:59;;;;;;;8.28;7.47;;;;;;;19.21;100.00;100152.47;1711942;82;21011;-78
2022/08/08 00:44:52;;;;;;;7.33;6.62;;;;;;;19.25;100.00;100162.49;1712707;82;21535;-79
2022/08/08 00:47:57;;;;;;;9.00;7.72;;;;;;;19.32;100.00;100158.05;1709906;82;21731;-78
2022/08/08 00:50:57;;;;;;;7.90;7.10;;;;;;;19.24;100.00;100160.86;1717081;82;21215;-79
2022/08/08 00:53:36;;;;;;;9.08;8.18;;;;;;;19.24;100.00;100160.86;1700827;82;20968;-78
2022/08/08 00:56:26;;;;;;;9.70;8.15;;;;;;;19.19;100.00;100158.21;1710987;82;20980;-78
2022/08/08 00:59:17;;;;;;;8.10;7.30;;;;;;;19.12;100.00;100161.33;1710009;82;21501;-79
2022/08/08 01:02:29;;;;;;;8.63;6.47;;;;;;;19.12;100.00;100159.15;1717900;82;21101;-77
2022/08/08 01:05:02;;;;;;;14.43;7.75;;;;;;;19.19;100.00;100156.84;1646664;83;21298;-79
2022/08/08 01:07:51;;;;;;;10.45;7.75;;;;;;;19.21;100.00;100155.20;1715318;82;21040;-78
2022/08/08 01:10:59;;;;;;;11.03;7.60;;;;;;;19.24;100.00;100155.95;1722228;82;21021;-78
2022/08/08 01:13:54;;;;;;;9.98;8.28;;;;;;;19.19;100.00;100158.21;1714468;82;21053;-79
2022/08/08 01:16:45;;;;;;;9.68;7.45;;;;;;;19.19;100.00;100155.48;1659293;84;21533;-78
2022/08/08 01:19:38;;;;;;;10.58;6.85;;;;;;;19.16;100.00;100148.72;1700795;83;21096;-80
2022/08/08 01:22:37;;;;;;;11.55;7.22;;;;;;;19.16;100.00;100148.72;1678876;85;21015;-78
2022/08/08 01:25:49;;;;;;;13.05;9.08;;;;;;;19.12;100.00;100142.79;1682515;85;21015;-79
2022/08/08 01:28:55;;;;;;;18.20;10.95;;;;;;;18.97;100.00;100149.81;1681835;84;20968;-80
2022/08/08 01:31:35;;;;;;;11.40;9.38;;;;;;;18.81;100.00;100149.20;1674743;83;21096;-78
2022/08/08 01:34:30;;;;;;;17.25;9.13;;;;;;;18.72;100.00;100146.33;1707476;84;20984;-79
2022/08/08 01:37:31;;;;;;;8.58;6.17;;;;;;;18.65;100.00;100148.61;1696745;82;21028;-80
2022/08/08 01:40:26;;;;;;;9.48;6.55;;;;;;;18.67;100.00;100151.03;1654777;85;21083;-79
2022/08/08 01:43:30;;;;;;;8.45;7.65;;;;;;;18.57;100.00;100151.96;1682033;85;20999;-79
2022/08/08 01:46:15;;;;;;;7.67;6.78;;;;;;;18.59;100.00;100156.58;1651069;86;21851;-82
2022/08/08 01:49:19;;;;;;;7.97;7.17;;;;;;;18.59;100.00;100164.76;1679324;85;21703;-81
2022/08/08 01:52:15;;;;;;;10.88;7.47;;;;;;;18.59;100.00;100168.84;1705574;82;21651;-80
2022/08/08 01:55:10;;;;;;;11.33;7.40;;;;;;;18.52;100.00;100167.52;1709792;84;21065;-78
2022/08/08 01:58:14;;;;;;;7.90;7.10;;;;;;;18.58;100.00;100159.05;1709715;83;20937;-80
2022/08/08 02:01:11;;;;;;;10.93;8.40;;;;;;;18.60;100.00;100160.94;1711358;82;21072;-80
2022/08/08 02:04:08;;;;;;;9.60;7.58;;;;;;;18.62;100.00;100161.44;1698836;83;21176;-78
2022/08/08 02:07:03;;;;;;;8.85;6.60;;;;;;;18.66;100.00;100171.20;1705199;82;21617;-80
2022/08/08 02:10:12;;;;;;;9.90;7.20;;;;;;;18.65;100.00;100175.05;1655005;85;21037;-79
2022/08/08 02:12:59;;;;;;;8.08;7.30;;;;;;;18.69;100.00;100174.72;1686304;83;20977;-79
2022/08/08 02:15:36;;;;;;;8.18;7.35;;;;;;;18.63;100.00;100166.34;1711170;83;21028;-78
2022/08/08 02:18:24;;;;;;;8.60;6.55;;;;;;;18.62;100.00;100166.08;1710512;83;21178;-78
2022/08/08 02:24:25;;;;;;;7.08;6.37;;;;;;;18.65;100.00;100162.79;1732797;82;21569;-81
2022/08/08 02:27:05;;;;;;;7.90;7.10;;;;;;;18.65;100.00;100157.34;1699700;82;21022;-79
2022/08/08 02:30:09;;;;;;;8.15;7.35;;;;;;;18.66;100.00;100160.30;1713748;82;20988;-79
2022/08/08 02:32:49;;;;;;;6.75;6.15;;;;;;;18.62;100.00;100162.80;1677385;85;21585;-78
2022/08/08 02:35:53;;;;;;;8.88;6.55;;;;;;;18.56;100.00;100163.95;1682543;85;21344;-79
2022/08/08 02:38:54;;;;;;;7.47;6.78;;;;;;;18.49;100.00;100178.47;1660254;85;21090;-78
2022/08/08 02:41:59;;;;;;;6.25;5.75;;;;;;;18.49;100.00;100178.47;1718348;82;21061;-79
2022/08/08 02:45:11;;;;;;;11.90;6.80;;;;;;;18.48;100.00;100173.30;1738634;82;21109;-80
2022/08/08 02:48:01;;;;;;;6.97;6.28;;;;;;;18.46;100.00;100180.97;1681674;85;21164;-80
2022/08/08 02:51:12;;;;;;;8.55;7.58;;;;;;;18.43;100.00;100176.08;1661495;85;21558;-79
2022/08/08 02:54:11;;;;;;;8.10;5.87;;;;;;;18.33;100.00;100174.83;1678213;85;20953;-79
2022/08/08 02:57:03;;;;;;;8.60;7.50;;;;;;;18.27;100.00;100171.38;1653124;83;21084;-78
2022/08/08 03:00:16;;;;;;;7.50;6.45;;;;;;;18.28;100.00;100175.69;1685878;83;20999;-78
2022/08/08 03:03:10;;;;;;;10.00;6.40;;;;;;;18.27;100.00;100176.81;1739647;81;25148;-81
2022/08/08 03:06:20;;;;;;;7.45;5.92;;;;;;;18.21;100.00;100173.88;1691044;82;21089;-79
2022/08/08 03:09:22;;;;;;;7.90;6.62;;;;;;;18.16;100.00;100180.73;1720770;81;21051;-79
2022/08/08 03:12:34;;;;;;;7.00;6.30;;;;;;;18.13;100.00;100180.74;1715636;83;21052;-80
2022/08/08 03:15:44;;;;;;;7.00;5.95;;;;;;;18.11;100.00;100180.23;1717109;83;21157;-80
2022/08/08 03:18:56;;;;;;;7.05;6.30;;;;;;;18.13;100.00;100184.05;1688860;83;21668;-79
2022/08/08 03:21:23;;;;;;;8.15;6.75;;;;;;;18.07;100.00;100185.19;1730824;81;21048;-80
2022/08/08 03:23:50;;;;;;;8.55;7.75;;;;;;;17.97;100.00;100190.72;1698472;83;21524;-78
2022/08/08 03:26:23;;;;;;;9.10;7.85;;;;;;;17.95;100.00;100195.08;1717910;83;21059;-79
2022/08/08 03:28:53;;;;;;;7.45;6.30;;;;;;;17.93;100.00;100198.66;1715371;83;21020;-79
2022/08/08 03:34:11;;;;;;;9.70;7.00;;;;;;;17.92;100.00;100194.30;1739521;81;21558;-81
2022/08/08 03:36:42;;;;;;;6.25;5.65;;;;;;;17.93;100.00;100199.20;1669402;84;21032;-76
2022/08/08 03:39:12;;;;;;;8.70;6.00;;;;;;;17.89;100.00;100196.79;1710242;83;21032;-76
2022/08/08 03:41:39;;;;;;;7.95;7.05;;;;;;;17.90;100.00;100201.11;1721927;81;21050;-76
2022/08/08 03:44:07;;;;;;;6.87;6.17;;;;;;;17.84;100.00;100200.37;1713652;82;21663;-80
2022/08/08 03:46:49;;;;;;;9.40;6.42;;;;;;;17.82;100.00;100199.28;1721679;81;21067;-80
2022/08/08 03:49:23;;;;;;;7.47;6.37;;;;;;;17.77;100.00;100203.41;1718398;83;20976;-80
2022/08/08 03:51:52;;;;;;;9.93;7.72;;;;;;;17.79;100.00;100208.58;1693689;83;20964;-79
2022/08/08 03:54:21;;;;;;;7.12;6.42;;;;;;;17.84;100.00;100203.09;1711163;83;20989;-78
2022/08/08 03:56:48;;;;;;;5.28;4.67;;;;;;;17.90;100.00;100210.64;1687436;83;21093;-79
2022/08/08 03:59:15;;;;;;;6.65;5.95;;;;;;;17.91;100.00;100217.16;1709899;84;21045;-80
2022/08/08 04:01:44;;;;;;;13.80;7.00;;;;;;;17.89;100.00;100209.82;1710580;82;21526;-80
2022/08/08 04:04:11;;;;;;;9.28;6.33;;;;;;;17.89;100.00;100204.95;1697394;83;21625;-83
2022/08/08 04:06:56;;;;;;;7.45;5.92;;;;;;;17.82;100.00;100212.07;1709746;83;21050;-82
2022/08/08 04:09:24;;;;;;;11.08;7.35;;;;;;;17.82;100.00;100216.16;1683591;84;21910;-82
2022/08/08 04:11:55;;;;;;;9.83;7.78;;;;;;;17.85;100.00;100214.21;1687512;84;21534;-82
2022/08/08 04:14:21;;;;;;;10.18;6.97;;;;;;;17.90;100.00;100214.72;1710067;83;21568;-82
2022/08/08 04:16:48;;;;;;;6.60;5.90;;;;;;;17.95;100.00;100212.77;1709327;82;21537;-82
2022/08/08 04:19:15;;;;;;;8.45;6.55;;;;;;;17.98;100.00;100215.48;1687470;84;20968;-81
2022/08/08 04:21:43;;;;;;;6.58;5.97;;;;;;;18.03;100.00;100213.53;1711040;82;21243;-80
2022/08/08 04:24:10;;;;;;;9.10;7.45;;;;;;;18.03;100.00;100216.80;1709591;84;21036;-82
2022/08/08 04:26:44;;;;;;;12.73;7.47;;;;;;;17.98;100.00;100213.58;1710859;83;21527;-81
2022/08/08 04:29:14;;;;;;;8.10;7.28;;;;;;;18.03;100.00;100216.26;1711476;84;20989;-80
2022/08/08 04:31:41;;;;;;;8.90;7.92;;;;;;;18.10;100.00;100215.36;1688496;84;21061;-79
2022/08/08 04:34:08;;;;;;;11.43;7.53;;;;;;;18.11;100.00;100221.62;1711998;83;21109;-79
2022/08/08 04:36:38;;;;;;;7.28;6.58;;;;;;;18.12;100.00;100214.53;1709084;82;21008;-79
2022/08/08 04:39:04;;;;;;;11.10;6.97;;;;;;;18.18;100.00;100216.09;1687275;82;21052;-81
2022/08/08 04:41:31;;;;;;;9.18;6.80;;;;;;;18.22;100.00;100221.22;1709852;83;21014;-80
2022/08/08 04:43:58;;;;;;;7.70;6.90;;;;;;;18.28;100.00;100223.34;1709610;84;21021;-82
2022/08/08 04:46:25;;;;;;;8.75;7.70;;;;;;;18.35;100.00;100221.11;1709724;84;21207;-81
2022/08/08 04:48:52;;;;;;;10.80;7.67;;;;;;;18.42;100.00;100223.48;1709638;84;21064;-82
2022/08/08 04:51:18;;;;;;;9.00;8.08;;;;;;;18.46;100.00;100229.45;1709680;83;20997;-82
2022/08/08 04:53:47;;;;;;;7.85;7.05;;;;;;;18.45;100.00;100221.01;1709535;82;21039;-82
2022/08/08 04:56:16;;;;;;;8.43;7.05;;;;;;;18.47;100.00;100229.69;1709745;84;21029;-82
2022/08/08 04:58:44;;;;;;;11.33;8.70;;;;;;;18.34;100.00;100239.91;1711689;82;21310;-81
2022/08/08 05:01:11;;;;;;;10.28;8.13;;;;;;;18.22;100.00;100229.97;1711310;83;21003;-82
2022/08/08 05:03:43;;;;;;;9.93;8.40;;;;;;;18.17;100.00;100232.19;1711329;83;21077;-83
2022/08/08 05:06:12;;;;;;;10.25;8.55;;;;;;;18.19;100.00;100234.05;1711680;83;21040;-83
2022/08/08 05:08:39;;;;;;;8.08;6.87;;;;;;;18.24;100.00;100234.55;1689216;83;21034;-83
2022/08/08 05:11:06;;;;;;;12.07;7.35;;;;;;;18.24;100.00;100234.02;1711502;83;21630;-82
2022/08/08 05:13:34;;;;;;;10.10;8.43;;;;;;;18.29;100.00;100235.88;1710910;82;20984;-85
2022/08/08 05:16:01;;;;;;;14.75;8.60;;;;;;;18.29;100.00;100235.33;1709916;83;21040;-82
2022/08/08 05:18:28;;;;;;;9.30;8.20;;;;;;;18.32;100.00;100235.86;1710842;82;21059;-83
2022/08/08 05:20:55;;;;;;;11.65;7.15;;;;;;;18.35;100.00;100243.45;1711721;83;21220;-84
2022/08/08 05:23:21;;;;;;;15.80;10.90;;;;;;;18.40;100.00;100240.13;1711466;83;21757;-84
2022/08/08 05:25:48;;;;;;;9.98;8.53;;;;;;;18.45;100.00;100246.08;1713511;83;21496;-85
2022/08/08 05:28:15;;;;;;;10.10;8.20;;;;;;;18.39;100.00;100242.58;1711484;83;21079;-82
2022/08/08 05:30:42;;;;;;;9.23;8.33;;;;;;;18.39;100.00;100249.39;1711880;83;20939;-83
2022/08/08 05:33:09;;;;;;;9.33;7.72;;;;;;;18.45;100.00;100247.44;1710402;82;21664;-82
2022/08/08 05:35:36;;;;;;;7.87;7.08;;;;;;;18.51;100.00;100249.02;1711752;83;21155;-83
2022/08/08 05:38:05;;;;;;;10.82;7.12;;;;;;;18.58;100.00;100250.86;1709459;82;21016;-83
2022/08/08 05:40:45;;;;;;;9.43;8.43;;;;;;;18.59;100.00;100250.58;1708106;83;21056;-84
2022/08/08 05:43:27;;;;;;;8.40;7.20;;;;;;;18.54;100.00;100247.09;1710126;84;21525;-83
2022/08/08 05:46:00;;;;;;;8.90;8.03;;;;;;;18.48;100.00;100250.39;1709968;82;26961;-84
2022/08/08 05:48:28;;;;;;;9.10;8.13;;;;;;;18.49;100.00;100248.48;1664837;84;21651;-83
2022/08/08 05:50:55;;;;;;;9.58;8.20;;;;;;;18.49;100.00;100255.28;1707392;84;20984;-84
2022/08/08 05:53:29;;;;;;;10.18;9.03;;;;;;;18.49;100.00;100262.91;1710023;83;21060;-86
2022/08/08 05:55:59;;;;;;;8.10;6.87;;;;;;;18.48;100.00;100260.47;1687248;84;21585;-83
2022/08/08 05:58:32;;;;;;;10.43;8.30;;;;;;;18.53;100.00;100259.05;1709082;82;21108;-85
2022/08/08 06:01:02;;;;;;;9.33;8.08;;;;;;;18.62;100.00;100260.89;1688948;84;21241;-85
2022/08/08 06:03:30;;;;;;;9.55;7.83;;;;;;;18.68;100.00;100263.83;1707673;84;20976;-85
2022/08/08 06:06:06;;;;;;;9.55;7.97;;;;;;;18.68;100.00;100261.66;1710272;83;21041;-86
2022/08/08 06:08:37;;;;;;;11.35;10.20;;;;;;;18.67;100.00;100267.65;1675187;84;21075;-83
2022/08/08 06:11:07;;;;;;;10.28;8.58;;;;;;;18.68;100.00;100273.37;1715253;83;21000;-86
2022/08/08 06:13:34;;;;;;;8.63;7.72;;;;;;;18.68;100.00;100268.47;1703092;83;21111;-85
2022/08/08 06:16:04;;;;;;;9.93;8.68;;;;;;;18.69;100.00;100270.91;1716692;81;20992;-84
2022/08/08 06:18:36;;;;;;;21.85;9.83;;;;;;;18.68;100.00;100276.09;1693743;83;21502;-85
2022/08/08 06:21:03;;;;;;;9.73;8.73;;;;;;;18.64;100.00;100272.88;1679914;83;21007;-85
2022/08/08 06:23:31;;;;;;;9.40;7.97;;;;;;;18.58;100.00;100276.20;1672387;82;21064;-85
2022/08/08 06:26:09;;;;;;;7.97;7.17;;;;;;;18.54;100.00;100277.87;1716712;82;21227;-81
2022/08/08 06:29:05;;;;;;;8.95;8.03;;;;;;;18.62;100.00;100273.70;1717962;83;20996;-83
2022/08/08 06:31:35;;;;;;;8.38;7.62;;;;;;;18.62;100.00;100273.70;1683414;83;21572;-80
2022/08/08 06:34:17;;;;;;;11.08;8.45;;;;;;;18.65;100.00;100283.49;1718626;81;21120;-82
2022/08/08 06:36:45;;;;;;;7.50;6.73;;;;;;;18.66;100.00;100285.09;1658533;85;21086;-83
2022/08/08 06:39:13;;;;;;;9.40;8.33;;;;;;;18.74;100.00;100287.75;1705830;82;22109;-86
2022/08/08 06:41:52;;;;;;;11.65;8.88;;;;;;;18.81;100.00;100289.56;1714837;81;21525;-83
2022/08/08 06:44:19;;;;;;;9.70;8.68;;;;;;;18.91;100.00;100288.09;1691186;82;21055;-83
2022/08/08 06:46:45;;;;;;;12.20;8.03;;;;;;;18.91;100.00;100288.09;1720217;81;21035;-81
2022/08/08 06:49:12;;;;;;;10.63;8.05;;;;;;;18.92;100.00;100291.64;1718507;83;21020;-82
2022/08/08 06:51:39;;;;;;;8.88;7.83;;;;;;;18.98;100.00;100295.39;1685588;83;21083;-85
2022/08/08 06:54:07;;;;;;;8.25;7.45;;;;;;;18.98;100.00;100295.39;1713314;81;21080;-87
2022/08/08 06:56:37;;;;;;;10.53;8.15;;;;;;;19.08;100.00;100295.82;1703401;83;21110;-83
2022/08/08 06:59:05;;;;;;;10.93;8.10;;;;;;;19.06;100.00;100294.73;1664111;85;21132;-85
2022/08/08 07:01:39;;;;;;;8.98;8.08;;;;;;;19.07;100.00;100299.64;1679211;85;21036;-85
2022/08/08 07:04:25;;;;;;;8.60;7.80;;;;;;;19.14;100.00;100295.45;1679549;83;21493;-82
2022/08/08 07:06:59;;;;;;;10.78;7.00;;;;;;;19.18;100.00;100294.33;1670833;85;20957;-86
2022/08/08 07:09:38;;;;;;;7.97;7.28;;;;;;;19.21;100.00;100293.74;1638270;85;21070;-86
2022/08/08 07:12:07;;;;;;;10.68;7.28;;;;;;;19.18;100.00;100303.88;1680260;83;21517;-84
2022/08/08 07:14:54;;;;;;;8.80;7.92;;;;;;;19.20;100.00;100304.94;1707252;83;21035;-85
2022/08/08 07:17:23;;;;;;;8.78;7.92;;;;;;;19.21;100.00;100308.74;1711941;83;21127;-86
2022/08/08 07:20:03;;;;;;;8.40;7.47;;;;;;;19.23;100.00;100315.28;1712663;82;21501;-85
2022/08/08 07:22:54;;;;;;;7.92;7.22;;;;;;;19.26;100.00;100312.77;1696628;82;20996;-87
2022/08/08 07:25:22;;;;;;;9.65;8.60;;;;;;;19.32;100.00;100318.43;1710918;83;21064;-85
2022/08/08 07:27:51;;;;;;;10.48;8.20;;;;;;;19.33;100.00;100315.94;1707730;83;20981;-86
2022/08/08 07:30:19;;;;;;;8.45;7.30;;;;;;;19.39;100.00;100312.05;1685290;84;21187;-87
2022/08/08 07:32:47;;;;;;;7.83;7.08;;;;;;;19.41;100.00;100315.31;1685324;84;21010;-87
2022/08/08 07:35:15;;;;;;;10.15;8.40;;;;;;;19.41;100.00;100309.03;1685269;84;21009;-89
2022/08/08 07:37:47;;;;;;;13.00;6.62;;;;;;;19.44;100.00;100313.38;1730306;81;21033;-85
2022/08/08 07:40:15;;;;;;;8.40;7.03;;;;;;;19.52;100.00;100317.36;1707087;83;21093;-86
2022/08/08 07:42:42;;;;;;;8.00;7.20;;;;;;;19.59;100.00;100313.17;1652771;85;21093;-89
2022/08/08 07:45:10;;;;;;;9.83;7.70;;;;;;;19.70;100.00;100311.67;1683315;83;21060;-85
2022/08/08 07:47:40;;;;;;;7.78;7.08;;;;;;;19.70;100.00;100308.94;1689577;83;22189;-81
2022/08/08 07:50:09;;;;;;;9.03;7.72;;;;;;;19.69;100.00;100308.13;1680272;85;21046;-75
2022/08/08 07:52:38;;;;;;;6.37;5.72;;;;;;;19.76;100.00;100305.04;1681090;85;21221;-79
2022/08/08 07:55:09;;;;;;;8.08;7.30;;;;;;;19.87;100.00;100317.41;1675956;84;21160;-80
2022/08/08 07:58:19;;;;;;;10.43;9.05;;;;;;;19.93;100.00;100312.95;1674482;85;21012;-79
2022/08/08 08:00:52;;;;;;;9.58;8.60;;;;;;;20.00;100.00;100319.38;1713147;83;20981;-81
2022/08/08 08:03:34;;;;;;;10.03;7.67;;;;;;;20.08;100.00;100316.55;1708006;83;21021;-81
2022/08/08 08:06:05;;;;;;;7.97;7.28;;;;;;;20.18;100.00;100313.11;1706250;84;21018;-80
2022/08/08 08:08:53;;;;;;;9.20;8.30;;;;;;;20.29;100.00;100317.28;1693664;83;21283;-79
2022/08/08 08:11:22;;;;;;;8.13;7.33;;;;;;;20.33;100.00;100320.28;1674035;82;21068;-85
2022/08/08 08:14:05;;;;;;;7.30;6.60;;;;;;;20.41;100.00;100320.95;1720614;82;21053;-80
2022/08/08 08:16:34;;;;;;;8.30;7.55;;;;;;;20.54;100.00;100318.80;1710023;82;21052;-79
2022/08/08 08:19:05;;;;;;;9.10;7.25;;;;;;;20.68;99.89;100311.43;1709426;82;21036;-81
2022/08/08 08:21:40;;;;;;;9.53;6.60;;;;;;;20.73;98.96;100319.55;1717411;82;23131;-80
2022/08/08 08:24:07;;;;;;;8.38;7.58;;;;;;;20.79;98.50;100316.16;1696543;81;21077;-77
2022/08/08 08:26:35;;;;;;;8.70;7.75;;;;;;;20.83;97.78;100312.52;1706763;82;21104;-80
2022/08/08 08:29:04;;;;;;;7.37;6.67;;;;;;;20.88;97.90;100310.24;1694444;83;21082;-81
2022/08/08 08:31:31;;;;;;;7.85;7.20;;;;;;;20.97;97.10;100317.99;1710648;82;21493;-81
2022/08/08 08:33:58;;;;;;;10.15;8.23;;;;;;;21.00;97.03;100320.70;1683252;83;21352;-82
2022/08/08 08:36:27;;;;;;;8.35;7.55;;;;;;;21.05;96.29;100326.07;1706525;82;21059;-81
2022/08/08 08:38:56;;;;;;;8.80;7.62;;;;;;;21.11;96.35;100323.46;1710812;83;20973;-83
2022/08/08 08:41:24;;;;;;;10.32;7.72;;;;;;;21.08;94.61;100324.89;1708829;84;21056;-81
2022/08/08 08:43:51;;;;;;;9.35;7.55;;;;;;;20.97;95.02;100328.12;1688276;83;21196;-82
2022/08/08 08:46:18;;;;;;;15.13;8.40;;;;;;;20.95;95.26;100327.63;1717490;82;21611;-82
2022/08/08 08:48:45;;;;;;;8.58;7.78;;;;;;;20.98;95.59;100318.81;1713971;82;21050;-83
2022/08/08 08:51:13;;;;;;;9.35;8.45;;;;;;;21.06;95.23;100324.93;1718292;82;20942;-83
2022/08/08 08:53:55;;;;;;;7.72;6.92;;;;;;;21.11;94.79;100322.91;1701271;83;21028;-82
2022/08/08 08:56:27;;;;;;;8.20;7.40;;;;;;;21.08;94.04;100331.73;1719110;81;21024;-82
2022/08/08 08:58:56;;;;;;;8.95;7.00;;;;;;;21.09;94.09;100327.08;1719747;83;21789;-83
2022/08/08 09:01:27;;;;;;;7.87;7.17;;;;;;;21.08;94.17;100329.00;1719922;83;21056;-82
2022/08/08 09:03:58;;;;;;;8.98;8.05;;;;;;;21.07;94.03;100334.20;1689833;83;20999;-80
2022/08/08 09:06:28;;;;;;;8.43;7.62;;;;;;;21.02;93.47;100334.30;1720958;81;21064;-80
2022/08/08 09:09:04;;;;;;;8.83;7.80;;;;;;;21.01;93.76;100330.50;1720004;81;21050;-82
2022/08/08 09:11:34;;;;;;;9.90;7.80;;;;;;;20.93;93.55;100332.02;1719537;83;21165;-81
2022/08/08 09:14:04;;;;;;;9.40;7.70;;;;;;;20.93;94.20;100332.58;1690088;83;20957;-80
2022/08/08 09:16:32;;;;;;;8.78;7.87;;;;;;;20.87;94.41;100330.49;1689530;83;21059;-83
2022/08/08 09:18:59;;;;;;;8.85;8.05;;;;;;;20.91;95.18;100331.50;1719562;83;21497;-80
2022/08/08 09:21:27;;;;;;;7.58;6.87;;;;;;;20.85;94.40;100325.34;1721413;82;21051;-82
2022/08/08 09:23:54;;;;;;;8.43;7.62;;;;;;;20.85;94.99;100325.34;1721385;83;21855;-81
2022/08/08 09:26:29;;;;;;;8.03;7.10;;;;;;;20.93;94.89;100332.58;1720748;81;20996;-80
2022/08/08 09:28:57;;;;;;;7.85;7.08;;;;;;;21.01;94.77;100331.87;1719826;83;20995;-81
2022/08/08 09:31:47;;;;;;;6.47;5.87;;;;;;;21.09;94.82;100325.16;1719813;83;20952;-82
2022/08/08 09:34:17;;;;;;;7.10;5.80;;;;;;;21.13;93.15;100327.56;1718842;82;22249;-77
2022/08/08 09:36:47;;;;;;;9.30;7.10;;;;;;;21.13;93.01;100325.34;1719973;81;21890;-80
2022/08/08 09:39:20;;;;;;;6.95;6.35;;;;;;;21.09;93.04;100329.81;1688978;83;21554;-78
2022/08/08 09:42:00;;;;;;;7.05;6.37;;;;;;;21.12;93.56;100327.83;1688952;83;21184;-78
2022/08/08 09:44:47;;;;;;;7.60;6.08;;;;;;;21.18;93.47;100333.48;1689342;83;21647;-78
2022/08/08 09:47:16;;;;;;;6.83;6.22;;;;;;;21.21;92.67;100327.39;1719807;81;21065;-77
2022/08/08 09:49:43;;;;;;;6.62;5.72;;;;;;;21.21;92.55;100330.95;1709550;82;21535;-78
2022/08/08 09:52:10;;;;;;;5.80;5.30;;;;;;;21.20;92.47;100331.24;1689244;83;21142;-77
2022/08/08 09:54:42;;;;;;;6.28;5.78;;;;;;;21.24;92.54;100333.09;1719621;83;21011;-77
2022/08/08 09:57:10;;;;;;;8.00;6.47;;;;;;;21.34;92.78;100340.84;1719588;82;21007;-77
2022/08/08 09:59:40;;;;;;;7.15;6.55;;;;;;;21.42;91.56;100337.38;1719671;82;21091;-79
2022/08/08 10:02:12;;;;;;;7.78;6.97;;;;;;;21.46;90.78;100335.09;1715205;83;21146;-78
2022/08/08 10:04:40;;;;;;;8.05;7.35;;;;;;;21.45;90.57;100334.02;1646499;86;21044;-78
2022/08/08 10:07:14;;;;;;;6.03;5.47;;;;;;;21.52;91.06;100341.27;1704963;84;20945;-78
2022/08/08 10:09:52;;;;;;;6.78;6.10;;;;;;;21.60;90.35;100341.91;1712288;82;21013;-80
2022/08/08 10:12:32;;;;;;;5.75;5.28;;;;;;;21.53;89.95;100336.86;1704847;83;20992;-77
2022/08/08 10:15:00;;;;;;;7.97;7.25;;;;;;;21.54;90.16;100340.38;1701070;83;21138;-79
2022/08/08 10:17:27;;;;;;;4.92;4.53;;;;;;;21.58;90.46;100338.68;1711385;83;21410;-77
2022/08/08 10:20:00;;;;;;;9.13;6.03;;;;;;;21.67;90.17;100345.86;1689223;83;21135;-78
2022/08/08 10:22:28;;;;;;;7.45;6.75;;;;;;;21.66;88.79;100344.79;1717652;82;21110;-78
2022/08/08 10:24:59;;;;;;;22.30;17.23;;;;;;;21.63;88.65;100337.20;1715445;83;21035;-79
2022/08/08 10:27:28;;;;;;;8.35;7.30;;;;;;;21.67;88.44;100339.02;1711809;83;21221;-79
2022/08/08 10:30:04;;;;;;;7.92;6.62;;;;;;;21.75;88.04;100329.25;1709352;82;38302;-79
2022/08/08 10:32:39;;;;;;;6.80;6.10;;;;;;;21.84;87.51;100329.32;1689076;84;20977;-79
2022/08/08 10:35:17;;;;;;;7.30;6.60;;;;;;;21.88;87.31;100327.02;1689988;84;21048;-80
2022/08/08 10:38:03;;;;;;;8.38;7.55;;;;;;;22.03;87.75;100328.63;1711918;83;20977;-79
2022/08/08 10:40:38;;;;;;;7.25;6.65;;;;;;;22.15;87.13;100325.60;1710356;82;21820;-79
2022/08/08 10:43:09;;;;;;;7.35;6.75;;;;;;;22.28;85.91;100326.65;1683350;85;21036;-79
2022/08/08 10:45:44;;;;;;;7.83;6.15;;;;;;;22.24;84.72;100325.66;1660636;85;21027;-78
2022/08/08 10:48:12;;;;;;;7.40;6.78;;;;;;;22.23;85.45;100332.81;1706888;82;21020;-77
2022/08/08 10:50:39;;;;;;;7.30;6.50;;;;;;;22.32;85.00;100331.75;1707622;82;21064;-80
2022/08/08 10:53:08;;;;;;;6.90;6.05;;;;;;;22.42;84.94;100327.39;1698172;82;21628;-78
2022/08/08 10:55:38;;;;;;;7.35;5.92;;;;;;;22.55;84.58;100322.37;1682577;85;21596;-79
2022/08/08 10:58:10;;;;;;;7.00;6.30;;;;;;;22.67;83.66;100322.37;1682984;85;20948;-78
2022/08/08 11:00:43;;;;;;;8.45;6.70;;;;;;;22.75;83.68;100324.38;1682784;85;21051;-78
2022/08/08 11:03:13;;;;;;;6.97;6.35;;;;;;;22.80;82.97;100314.08;1682871;85;21023;-81
2022/08/08 11:05:48;;;;;;;8.55;7.12;;;;;;;22.77;82.87;100327.63;1682524;85;21193;-80
2022/08/08 11:08:25;;;;;;;8.33;7.03;;;;;;;22.77;82.73;100322.13;1699372;83;21561;-81
2022/08/08 11:11:08;;;;;;;8.48;7.65;;;;;;;22.78;81.92;100321.80;1709683;84;21084;-78
2022/08/08 11:13:42;;;;;;;9.00;7.42;;;;;;;22.76;81.93;100317.77;1709825;84;21092;-82
2022/08/08 11:16:13;;;;;;;8.23;7.42;;;;;;;22.80;81.55;100324.23;1709614;83;21082;-77
2022/08/08 11:18:43;;;;;;;8.10;7.40;;;;;;;22.77;81.21;100316.65;1648200;87;21161;-80
2022/08/08 11:21:11;;;;;;;7.85;7.12;;;;;;;22.78;81.24;100320.42;1657543;85;20985;-76
2022/08/08 11:23:42;;;;;;;6.40;5.90;;;;;;;22.81;81.24;100312.95;1676862;85;21100;-80
2022/08/08 11:26:19;;;;;;;7.05;5.97;;;;;;;22.81;81.00;100315.70;1654601;85;21033;-78
2022/08/08 11:28:48;;;;;;;6.78;6.28;;;;;;;22.78;80.94;100319.65;1649443;85;21001;-77
2022/08/08 11:31:17;;;;;;;7.33;6.72;;;;;;;22.69;81.64;100311.87;1674857;85;21268;-78
2022/08/08 11:33:51;;;;;;;10.15;8.20;;;;;;;22.62;81.29;100316.46;1675106;85;20945;-81
2022/08/08 11:36:18;;;;;;;7.28;6.65;;;;;;;22.52;81.54;100315.35;1660889;84;21139;-81
2022/08/08 11:38:45;;;;;;;7.87;7.17;;;;;;;22.47;81.73;100317.66;1676665;84;21073;-81
2022/08/08 11:41:12;;;;;;;9.33;8.15;;;;;;;22.47;81.91;100319.59;1679982;83;21077;-78
2022/08/08 11:43:40;;;;;;;9.05;7.62;;;;;;;22.48;82.20;100320.66;1677321;85;21596;-80
2022/08/08 11:46:07;;;;;;;12.35;7.85;;;;;;;22.47;82.33;100316.30;1683842;83;21510;-80
2022/08/08 11:48:34;;;;;;;8.48;7.60;;;;;;;22.42;82.09;100313.68;1690717;83;21042;-79
2022/08/08 11:51:00;;;;;;;7.55;6.50;;;;;;;22.37;82.42;100308.33;1645891;84;21133;-80
2022/08/08 11:53:28;;;;;;;7.40;6.70;;;;;;;22.35;82.16;100307.82;1675599;83;21062;-82
2022/08/08 11:55:54;;;;;;;6.80;6.20;;;;;;;22.37;82.63;100315.73;1669972;84;21929;-81
2022/08/08 11:58:34;;;;;;;7.67;6.97;;;;;;;22.44;82.49;100313.38;1683421;84;21060;-81
2022/08/08 12:01:06;;;;;;;7.83;7.17;;;;;;;22.54;82.66;100314.49;1679174;84;21098;-81
2022/08/08 12:03:33;;;;;;;8.00;7.20;;;;;;;22.68;81.86;100317.14;1707562;84;21038;-83
2022/08/08 12:06:14;;;;;;;10.18;7.22;;;;;;;22.76;80.95;100319.14;1676069;85;21085;-82